Time;durP1;ratioP1;P1;durP2;ratioP2;P2;SDS_P1;SDS_P2;PMS_P1;PMS_P2;Temp;Humidity;BMP_temperature;BMP_pressure;BME280_temperature;BME280_humidity;BME280_pressure;Samples;Min_cycle;Max_cycle;Signal;HPM_P1;HPM_P2
2024/03/23 00:01:39;;;;;;;13.68;9.30;;;14.00;99.40;;;;;;6306754;22;20333;-71
2024/03/23 00:04:05;;;;;;;16.83;9.32;;;14.00;99.90;;;;;;6306422;22;20434;-68
2024/03/23 00:06:32;;;;;;;15.35;9.70;;;14.00;99.90;;;;;;6306300;22;20441;-74
2024/03/23 00:08:59;;;;;;;17.33;9.20;;;13.80;98.90;;;;;;6306236;22;20474;-69
2024/03/23 00:11:26;;;;;;;13.23;8.75;;;13.80;99.20;;;;;;6306028;22;20022;-66
2024/03/23 00:13:52;;;;;;;14.15;9.57;;;13.90;99.90;;;;;;6306188;22;19995;-67
2024/03/23 00:16:21;;;;;;;16.23;8.65;;;13.90;99.90;;;;;;6306381;22;20011;-67
2024/03/23 00:18:48;;;;;;;13.80;8.38;;;13.80;99.90;;;;;;6306216;22;19999;-66
2024/03/23 00:21:15;;;;;;;14.25;8.18;;;13.80;99.90;;;;;;6328959;22;20014;-67
2024/03/23 00:23:41;;;;;;;14.50;8.23;;;13.80;99.90;;;;;;6338184;22;20024;-68
2024/03/23 00:26:08;;;;;;;12.00;8.80;;;13.80;99.90;;;;;;6337600;22;20034;-67
2024/03/23 00:28:35;;;;;;;13.60;9.23;;;13.80;99.90;;;;;;6338157;22;20002;-67
2024/03/23 00:31:01;;;;;;;12.43;8.52;;;13.70;99.90;;;;;;6338343;22;20356;-67
2024/03/23 00:33:28;;;;;;;13.48;8.00;;;13.70;99.90;;;;;;6338979;22;20007;-71
2024/03/23 00:35:55;;;;;;;15.25;8.40;;;13.70;99.90;;;;;;6310241;22;20010;-70
2024/03/23 00:38:22;;;;;;;10.13;7.82;;;13.60;99.90;;;;;;6338307;22;19999;-72
2024/03/23 00:40:49;;;;;;;12.77;7.88;;;13.70;99.90;;;;;;6338210;22;20309;-71
2024/03/23 00:51:30;;;;;;;11.57;8.10;;;13.60;99.90;;;;;;6092917;23;20010;-68
2024/03/23 00:54:34;;;;;;;11.05;7.00;;;13.60;99.90;;;;;;5978998;24;20573;-72
2024/03/23 01:03:17;;;;;;;12.13;7.35;;;13.50;99.90;;;;;;6094842;23;20416;-74
2024/03/23 01:09:08;;;;;;;11.70;6.90;;;13.30;99.90;;;;;;6142286;23;20010;-69
2024/03/23 01:11:35;;;;;;;9.65;7.18;;;13.20;99.90;;;;;;6212911;23;20005;-72
2024/03/23 01:14:01;;;;;;;10.18;6.13;;;13.20;99.90;;;;;;6240930;22;20384;-69
2024/03/23 01:16:26;;;;;;;12.30;6.95;;;13.20;99.90;;;;;;6339311;22;20003;-71
2024/03/23 01:18:52;;;;;;;9.32;6.10;;;13.20;99.90;;;;;;6339336;22;20006;-72
2024/03/23 01:21:18;;;;;;;7.50;5.80;;;13.30;99.90;;;;;;6338838;22;20026;-70
2024/03/23 01:23:43;;;;;;;10.77;6.50;;;13.30;99.90;;;;;;6339443;22;20137;-67
2024/03/23 01:26:09;;;;;;;8.90;5.40;;;13.20;99.90;;;;;;6339606;22;20013;-72
2024/03/23 01:28:35;;;;;;;7.53;5.80;;;13.20;99.90;;;;;;6339473;22;20006;-68
2024/03/23 01:31:01;;;;;;;7.47;5.75;;;13.20;99.90;;;;;;6339434;22;20009;-68
2024/03/23 01:33:26;;;;;;;9.40;6.50;;;13.20;99.90;;;;;;6339802;22;20013;-68
2024/03/23 01:35:52;;;;;;;8.52;5.15;;;13.20;99.90;;;;;;6339416;22;20003;-69
2024/03/23 01:38:18;;;;;;;9.25;5.85;;;13.10;99.90;;;;;;6339681;22;20003;-70
2024/03/23 01:40:43;;;;;;;8.13;5.40;;;13.10;99.90;;;;;;6339544;22;19999;-71
2024/03/23 01:43:09;;;;;;;8.88;6.03;;;13.10;99.90;;;;;;6339847;22;20070;-67
2024/03/23 01:45:35;;;;;;;8.93;5.40;;;13.10;99.90;;;;;;6338940;22;20011;-72
2024/03/23 01:48:02;;;;;;;9.68;6.30;;;13.00;99.90;;;;;;6339307;22;20048;-71
2024/03/23 01:50:33;;;;;;;8.68;5.43;;;13.00;99.90;;;;;;6339170;22;20007;-74
2024/03/23 01:53:00;;;;;;;8.70;5.93;;;12.90;99.90;;;;;;6339131;22;20002;-74
2024/03/23 01:55:26;;;;;;;9.85;5.80;;;12.90;99.90;;;;;;6339427;22;20047;-73
2024/03/23 01:57:51;;;;;;;7.07;5.68;;;12.90;99.90;;;;;;6337494;22;20006;-72
2024/03/23 02:00:17;;;;;;;11.18;6.05;;;12.80;99.90;;;;;;6335872;22;20084;-73
2024/03/23 02:02:46;;;;;;;9.68;6.03;;;12.80;99.90;;;;;;6335650;22;19999;-71
2024/03/23 02:05:13;;;;;;;7.75;6.13;;;12.80;99.90;;;;;;6337592;22;20050;-71
2024/03/23 02:07:45;;;;;;;14.57;6.88;;;12.70;99.90;;;;;;6311477;22;20060;-70
2024/03/23 02:10:13;;;;;;;10.63;6.38;;;12.70;99.90;;;;;;6338542;22;19999;-72
2024/03/23 02:12:39;;;;;;;11.02;6.65;;;12.70;99.90;;;;;;6339131;22;20401;-71
2024/03/23 02:15:05;;;;;;;10.80;6.45;;;12.60;99.90;;;;;;6339413;22;20082;-68
2024/03/23 02:17:34;;;;;;;13.27;6.50;;;12.60;99.90;;;;;;6339437;22;19995;-70
2024/03/23 02:20:03;;;;;;;9.20;6.93;;;12.70;99.90;;;;;;6339272;22;20378;-68
2024/03/23 02:22:42;;;;;;;8.98;6.15;;;12.60;99.90;;;;;;6339592;22;20002;-72
2024/03/23 02:29:04;;;;;;;11.27;7.35;;;12.60;99.90;;;;;;6092781;23;20578;-68
2024/03/23 02:32:12;;;;;;;10.55;6.70;;;12.60;99.90;;;;;;6065828;23;20007;-71
2024/03/23 02:38:50;;;;;;;9.35;6.47;;;12.50;99.80;;;;;;5816943;24;20015;-68
2024/03/23 02:42:23;;;;;;;12.55;6.65;;;12.40;99.30;;;;;;5817377;24;20103;-71
2024/03/23 02:48:24;;;;;;;10.88;6.63;;;12.20;99.70;;;;;;5952785;24;20414;-72
2024/03/23 02:50:50;;;;;;;12.48;6.88;;;12.10;99.90;;;;;;5952983;24;20309;-71
2024/03/23 02:53:17;;;;;;;9.82;6.28;;;12.00;99.90;;;;;;6032727;23;20017;-69
2024/03/23 02:55:43;;;;;;;9.98;6.63;;;11.90;99.90;;;;;;6229320;22;20034;-71
2024/03/23 02:58:09;;;;;;;10.40;6.85;;;11.90;99.90;;;;;;6335739;22;20021;-71
2024/03/23 03:00:34;;;;;;;12.02;6.65;;;11.90;99.90;;;;;;6335939;22;19998;-72
2024/03/23 03:03:00;;;;;;;7.63;6.65;;;11.80;99.90;;;;;;6339021;22;19999;-71
2024/03/23 03:05:26;;;;;;;11.38;6.65;;;11.70;99.90;;;;;;6338176;22;20018;-70
2024/03/23 03:07:52;;;;;;;10.57;5.97;;;11.70;99.90;;;;;;6338692;22;20065;-71
2024/03/23 03:10:17;;;;;;;8.75;6.40;;;11.70;99.90;;;;;;6338799;22;20008;-71
2024/03/23 03:12:43;;;;;;;10.45;6.50;;;11.70;99.90;;;;;;6338592;22;20045;-71
2024/03/23 03:15:09;;;;;;;9.20;6.57;;;11.60;99.90;;;;;;6338550;22;20006;-71
2024/03/23 03:17:35;;;;;;;11.93;7.18;;;11.70;99.90;;;;;;6338612;22;20480;-71
2024/03/23 03:20:01;;;;;;;10.38;6.60;;;11.60;99.90;;;;;;6338379;22;20034;-69
2024/03/23 03:22:26;;;;;;;10.73;7.22;;;11.50;99.90;;;;;;6337564;22;19998;-73
2024/03/23 03:24:52;;;;;;;10.73;6.07;;;11.50;99.90;;;;;;6338093;22;19998;-73
2024/03/23 03:27:18;;;;;;;9.85;7.25;;;11.50;99.90;;;;;;6338557;22;20003;-69
2024/03/23 03:29:43;;;;;;;25.13;6.72;;;11.50;99.90;;;;;;6338824;22;20096;-65
2024/03/23 03:32:09;;;;;;;13.27;6.13;;;11.50;99.90;;;;;;6310855;22;20007;-67
2024/03/23 03:34:35;;;;;;;11.05;7.18;;;11.50;99.90;;;;;;6338267;22;19999;-66
2024/03/23 03:37:01;;;;;;;9.82;6.72;;;11.50;99.90;;;;;;6338361;22;19998;-66
2024/03/23 03:39:26;;;;;;;11.13;6.43;;;11.40;99.90;;;;;;6338405;22;20007;-67
2024/03/23 03:41:52;;;;;;;10.75;6.47;;;11.40;99.90;;;;;;6338676;22;20003;-67
2024/03/23 03:44:18;;;;;;;9.85;6.22;;;11.40;99.90;;;;;;6338559;22;20045;-67
2024/03/23 03:46:44;;;;;;;10.85;6.75;;;11.30;99.90;;;;;;6338037;22;20017;-67
2024/03/23 03:49:10;;;;;;;9.40;6.35;;;11.30;99.90;;;;;;6338215;22;20035;-66
2024/03/23 03:51:36;;;;;;;9.18;6.22;;;11.30;99.90;;;;;;6311045;22;20014;-72
2024/03/23 03:54:02;;;;;;;11.88;6.45;;;11.30;99.90;;;;;;6338369;22;20005;-67
2024/03/23 03:56:28;;;;;;;10.90;6.63;;;11.30;99.90;;;;;;6338944;22;20416;-72
2024/03/23 03:58:54;;;;;;;11.18;6.80;;;11.20;99.90;;;;;;6338811;22;20026;-73
2024/03/23 04:01:20;;;;;;;13.43;6.10;;;11.20;99.90;;;;;;6339396;22;20307;-68
2024/03/23 04:04:49;;;;;;;;;;;;;;;;;;;;;
2024/03/23 04:11:44;;;;;;;8.63;6.80;;;11.20;99.90;;;;;;6093524;23;20021;-69
2024/03/23 04:15:13;;;;;;;9.30;6.80;;;11.20;99.90;;;;;;6070526;23;20132;-72
2024/03/23 04:17:46;;;;;;;10.25;6.20;;;11.20;99.90;;;;;;6155036;22;20233;-69
2024/03/23 04:20:14;;;;;;;6.88;5.40;;;11.20;99.90;;;;;;6338266;22;20037;-69
2024/03/23 04:22:58;;;;;;;8.48;6.20;;;11.20;99.90;;;;;;6338653;22;20086;-69
2024/03/23 04:25:45;;;;;;;7.75;6.07;;;11.20;99.90;;;;;;6336311;22;20019;-71
2024/03/23 04:28:52;;;;;;;8.05;6.03;;;11.10;99.90;;;;;;6337531;22;20002;-71
2024/03/23 04:31:21;;;;;;;11.98;6.15;;;11.10;99.90;;;;;;6337420;22;20003;-69
2024/03/23 04:33:47;;;;;;;11.02;5.80;;;11.10;99.90;;;;;;6338185;22;20034;-68
2024/03/23 04:36:14;;;;;;;11.13;5.63;;;11.10;99.90;;;;;;6339560;22;20387;-68
2024/03/23 04:38:39;;;;;;;10.70;5.47;;;11.10;99.90;;;;;;6339525;22;20379;-69
2024/03/23 04:41:05;;;;;;;9.52;5.57;;;11.00;99.90;;;;;;6339498;22;19995;-73
2024/03/23 04:43:31;;;;;;;11.60;5.10;;;11.00;99.90;;;;;;6339601;22;20009;-70
2024/03/23 04:45:57;;;;;;;17.17;6.38;;;11.00;99.90;;;;;;6339545;22;20038;-72
2024/03/23 04:48:23;;;;;;;13.82;6.80;;;11.00;99.90;;;;;;6339996;22;20009;-68
2024/03/23 04:50:50;;;;;;;13.43;5.50;;;11.00;99.90;;;;;;6339338;22;20011;-72
2024/03/23 04:53:16;;;;;;;9.77;5.90;;;11.00;99.90;;;;;;6339656;22;20029;-68
2024/03/23 04:55:42;;;;;;;12.07;6.18;;;10.90;99.90;;;;;;6338912;22;20062;-68
2024/03/23 04:58:08;;;;;;;16.25;5.72;;;10.90;99.90;;;;;;6339039;22;20035;-71
2024/03/23 05:00:34;;;;;;;7.38;5.70;;;10.90;99.90;;;;;;6339588;22;20006;-68
2024/03/23 05:03:00;;;;;;;7.57;5.50;;;10.80;99.90;;;;;;6339524;22;20048;-71
2024/03/23 05:05:26;;;;;;;8.93;5.40;;;10.80;99.90;;;;;;6339415;22;20010;-71
2024/03/23 05:07:51;;;;;;;12.10;6.35;;;10.70;99.90;;;;;;6339690;22;19994;-69
2024/03/23 05:10:17;;;;;;;11.25;5.57;;;10.70;99.90;;;;;;6339442;22;19999;-71
2024/03/23 05:12:45;;;;;;;7.53;5.10;;;10.70;99.90;;;;;;6339599;22;20021;-72
2024/03/23 05:15:10;;;;;;;7.95;5.07;;;10.70;99.90;;;;;;6339874;22;20007;-71
2024/03/23 05:17:37;;;;;;;13.87;5.97;;;10.60;99.90;;;;;;6339574;22;20033;-70
2024/03/23 05:20:03;;;;;;;11.97;5.77;;;10.50;99.90;;;;;;6338961;22;20059;-68
2024/03/23 05:22:30;;;;;;;10.13;5.25;;;10.50;99.90;;;;;;6339608;22;19998;-74
2024/03/23 05:24:56;;;;;;;11.53;5.67;;;10.50;99.90;;;;;;6286513;22;20032;-67
2024/03/23 05:27:22;;;;;;;10.30;5.90;;;10.40;99.90;;;;;;6339296;22;20002;-73
2024/03/23 05:29:49;;;;;;;10.33;5.23;;;10.40;99.90;;;;;;6339461;22;20026;-70
2024/03/23 05:32:14;;;;;;;11.30;5.83;;;10.40;99.90;;;;;;6339940;22;20097;-70
2024/03/23 05:34:40;;;;;;;12.87;6.03;;;10.40;99.90;;;;;;6339922;22;20026;-68
2024/03/23 05:37:06;;;;;;;9.57;7.23;;;10.40;99.90;;;;;;6339806;22;20082;-70
2024/03/23 05:39:32;;;;;;;11.33;8.17;;;10.40;99.90;;;;;;6340138;22;20006;-68
2024/03/23 05:41:58;;;;;;;13.67;9.00;;;10.40;99.90;;;;;;6340095;22;20437;-69
2024/03/23 05:44:46;;;;;;;16.92;9.82;;;10.50;99.90;;;;;;6339841;22;19999;-73
2024/03/23 05:48:25;;;;;;;15.70;9.03;;;10.50;99.90;;;;;;6183313;23;20049;-74
2024/03/23 06:01:20;;;;;;;9.45;7.18;;;10.70;99.90;;;;;;5980320;23;20016;-69
2024/03/23 06:04:40;;;;;;;;;;;;;;;;;;;;;
2024/03/23 06:07:34;;;;;;;10.88;6.88;;;10.80;99.90;;;;;;5960391;23;20028;-71
2024/03/23 06:13:11;;;;;;;8.95;6.65;;;10.90;99.90;;;;;;6038008;23;20066;-69
2024/03/23 06:15:38;;;;;;;12.57;6.93;;;11.00;99.90;;;;;;6065703;23;20385;-77
2024/03/23 06:18:05;;;;;;;9.30;6.25;;;11.00;99.90;;;;;;6124236;23;20005;-72
2024/03/23 06:20:31;;;;;;;10.63;6.18;;;11.10;99.90;;;;;;6336584;22;20383;-73
2024/03/23 06:22:57;;;;;;;11.95;6.95;;;11.20;99.90;;;;;;6339799;22;20002;-74
2024/03/23 06:25:23;;;;;;;10.07;6.18;;;11.20;99.90;;;;;;6339035;22;20375;-68
2024/03/23 06:27:49;;;;;;;9.23;6.05;;;11.30;99.90;;;;;;6338848;22;20005;-78
2024/03/23 06:30:14;;;;;;;9.43;5.90;;;11.30;99.90;;;;;;6338728;22;20049;-77
2024/03/23 06:32:40;;;;;;;11.93;5.88;;;11.40;99.90;;;;;;6338283;22;20044;-76
2024/03/23 06:35:09;;;;;;;8.13;5.95;;;11.40;99.90;;;;;;6338424;22;20002;-72
2024/03/23 06:37:35;;;;;;;12.85;6.18;;;11.50;99.90;;;;;;6338789;22;20049;-74
2024/03/23 06:40:01;;;;;;;11.48;5.90;;;11.60;99.90;;;;;;6338644;22;20065;-79
2024/03/23 06:42:28;;;;;;;9.40;5.60;;;11.70;99.90;;;;;;6338327;22;20026;-79
2024/03/23 06:44:53;;;;;;;9.73;6.35;;;11.80;99.90;;;;;;6337891;22;20007;-79
2024/03/23 06:47:19;;;;;;;10.10;5.97;;;11.90;99.90;;;;;;6338774;22;20021;-78
2024/03/23 06:49:45;;;;;;;9.95;5.75;;;12.00;99.90;;;;;;6338773;22;19995;-72
2024/03/23 06:52:11;;;;;;;10.70;5.85;;;12.10;99.90;;;;;;6338408;22;20010;-77
2024/03/23 06:54:36;;;;;;;11.93;5.82;;;12.20;99.90;;;;;;6338949;22;20091;-68
2024/03/23 06:57:02;;;;;;;5.75;4.40;;;12.30;99.90;;;;;;6337730;22;20022;-68
2024/03/23 06:59:28;;;;;;;9.27;4.80;;;12.40;99.90;;;;;;6338302;22;20014;-68
2024/03/23 07:01:54;;;;;;;6.90;4.85;;;12.50;99.90;;;;;;6337718;22;20003;-68
2024/03/23 07:04:20;;;;;;;10.98;5.15;;;12.60;99.90;;;;;;6338473;22;20003;-69
2024/03/23 07:06:46;;;;;;;9.13;4.78;;;12.70;99.90;;;;;;6338103;22;20011;-68
2024/03/23 07:09:12;;;;;;;5.95;4.25;;;12.70;99.90;;;;;;6337709;22;20082;-69
2024/03/23 07:11:38;;;;;;;8.18;4.63;;;12.70;99.90;;;;;;6338707;22;20010;-69
2024/03/23 07:14:04;;;;;;;8.02;4.63;;;12.80;99.90;;;;;;6338169;22;20005;-77
2024/03/23 07:16:30;;;;;;;8.93;4.85;;;12.80;99.90;;;;;;6336775;22;20002;-69
2024/03/23 07:18:56;;;;;;;6.88;5.10;;;12.80;99.90;;;;;;6339337;22;19999;-68
2024/03/23 07:21:22;;;;;;;6.55;4.45;;;12.80;99.90;;;;;;6339003;22;20021;-67
2024/03/23 07:23:48;;;;;;;6.13;4.53;;;12.90;99.90;;;;;;6339012;22;20120;-68
2024/03/23 07:26:17;;;;;;;9.82;4.07;;;12.90;99.90;;;;;;6339487;22;20336;-68
2024/03/23 07:29:16;;;;;;;8.15;3.78;;;13.00;99.90;;;;;;6338812;22;20337;-68
2024/03/23 07:42:23;;;;;;;7.30;4.13;;;13.20;99.90;;;;;;6125675;23;20019;-68
2024/03/23 07:45:26;;;;;;;10.55;4.47;;;13.30;99.90;;;;;;6240834;23;20008;-68
2024/03/23 07:47:52;;;;;;;5.85;4.00;;;13.40;99.90;;;;;;6236926;23;20044;-68
2024/03/23 07:50:39;;;;;;;7.78;5.00;;;13.50;99.90;;;;;;6240820;23;20012;-68
2024/03/23 07:53:05;;;;;;;6.50;4.20;;;13.60;99.90;;;;;;6241790;23;20030;-68
2024/03/23 07:55:31;;;;;;;8.45;4.13;;;13.60;99.70;;;;;;6256719;22;20320;-68
2024/03/23 07:57:57;;;;;;;16.77;4.13;;;13.70;99.80;;;;;;6336849;22;20370;-68
2024/03/23 08:00:23;;;;;;;7.43;3.72;;;13.80;99.80;;;;;;6337513;22;20005;-68
2024/03/23 08:02:51;;;;;;;10.30;4.53;;;13.80;99.60;;;;;;6338085;22;20009;-68
2024/03/23 08:05:17;;;;;;;5.88;3.95;;;13.90;99.40;;;;;;6339028;22;20013;-68
2024/03/23 08:07:43;;;;;;;8.35;3.95;;;13.90;99.20;;;;;;6338721;22;20081;-68
2024/03/23 08:10:08;;;;;;;6.15;3.60;;;14.00;99.30;;;;;;6337751;22;19999;-68
2024/03/23 08:12:34;;;;;;;9.23;4.55;;;14.10;98.90;;;;;;6337748;22;20007;-68
2024/03/23 08:15:00;;;;;;;9.40;4.05;;;14.10;98.90;;;;;;6338638;22;19999;-68
2024/03/23 08:17:25;;;;;;;11.90;4.47;;;14.20;98.80;;;;;;6338624;22;19999;-68
2024/03/23 08:19:52;;;;;;;11.50;3.75;;;14.20;98.60;;;;;;6338428;22;20026;-68
2024/03/23 08:22:19;;;;;;;8.50;3.72;;;14.30;99.00;;;;;;6338709;22;20432;-68
2024/03/23 08:24:45;;;;;;;7.75;3.92;;;14.40;98.70;;;;;;6310528;22;20023;-68
2024/03/23 08:27:10;;;;;;;6.78;3.90;;;14.40;98.80;;;;;;6338438;22;20007;-68
2024/03/23 08:29:36;;;;;;;12.32;4.60;;;14.50;99.00;;;;;;6338465;22;20006;-68
2024/03/23 08:32:02;;;;;;;9.27;3.90;;;14.60;99.30;;;;;;6338531;22;19999;-68
2024/03/23 08:34:28;;;;;;;8.90;4.13;;;14.60;99.00;;;;;;6338531;22;20018;-68
2024/03/23 08:36:54;;;;;;;6.50;4.28;;;14.70;99.10;;;;;;6337803;22;20010;-68
2024/03/23 08:39:19;;;;;;;8.32;3.85;;;14.80;99.50;;;;;;6338244;22;20005;-68
2024/03/23 08:41:46;;;;;;;4.10;3.70;;;14.80;99.90;;;;;;6337932;22;19994;-68
2024/03/23 08:44:11;;;;;;;5.15;4.13;;;14.90;99.60;;;;;;6337827;22;20010;-70
2024/03/23 08:46:38;;;;;;;7.10;4.55;;;15.00;99.50;;;;;;6337471;22;20015;-68
2024/03/23 08:49:04;;;;;;;5.70;4.03;;;15.00;99.60;;;;;;6338188;22;19991;-68
2024/03/23 08:51:29;;;;;;;5.50;4.30;;;15.10;99.90;;;;;;6338274;22;20051;-68
2024/03/23 08:53:55;;;;;;;5.80;4.03;;;15.20;99.90;;;;;;6338357;22;20002;-68
2024/03/23 08:56:21;;;;;;;6.20;4.68;;;15.30;99.80;;;;;;6338510;22;20014;-68
2024/03/23 08:58:47;;;;;;;6.88;4.80;;;15.30;99.90;;;;;;6337317;22;19999;-68
2024/03/23 09:01:13;;;;;;;13.35;4.68;;;15.40;99.90;;;;;;6335391;22;20449;-68
2024/03/23 09:03:39;;;;;;;11.90;4.47;;;15.50;99.60;;;;;;6335614;22;20379;-68
2024/03/23 09:06:13;;;;;;;6.10;4.47;;;15.50;99.40;;;;;;6337556;22;20381;-68
2024/03/23 09:15:35;;;;;;;8.18;5.60;;;;;;;;;;6211910;23;20052;-69
2024/03/23 09:18:21;;;;;;;10.18;5.38;;;15.70;97.30;;;;;;6122873;23;20447;-68
2024/03/23 09:24:35;;;;;;;7.50;5.70;;;15.80;96.90;;;;;;6153867;23;20013;-68
2024/03/23 09:27:46;;;;;;;9.88;6.10;;;15.80;97.20;;;;;;6182647;23;20106;-68
2024/03/23 09:31:14;;;;;;;12.93;6.50;;;15.80;97.30;;;;;;6307426;22;20326;-68
2024/03/23 09:33:42;;;;;;;12.15;6.20;;;15.90;96.70;;;;;;6206010;23;20008;-68
2024/03/23 09:36:11;;;;;;;10.60;6.57;;;15.90;96.80;;;;;;6210408;23;20439;-68
2024/03/23 09:38:37;;;;;;;10.32;7.32;;;16.00;96.20;;;;;;6300446;22;20380;-68
2024/03/23 09:41:08;;;;;;;9.88;6.43;;;16.00;96.30;;;;;;6308359;22;20035;-68
2024/03/23 09:43:34;;;;;;;13.48;10.25;;;16.10;96.80;;;;;;6308458;22;20003;-68
2024/03/23 09:46:02;;;;;;;13.98;10.27;;;16.10;94.70;;;;;;6308176;22;20019;-68
2024/03/23 09:48:28;;;;;;;12.02;7.68;;;16.20;94.00;;;;;;6281520;22;20007;-68
2024/03/23 09:50:54;;;;;;;9.90;7.63;;;16.20;92.50;;;;;;6308507;22;20086;-68
2024/03/23 09:53:20;;;;;;;9.73;5.80;;;16.20;92.80;;;;;;6306239;22;19996;-68
2024/03/23 09:55:46;;;;;;;13.25;5.80;;;16.30;92.00;;;;;;6305118;22;20068;-68
2024/03/23 09:58:17;;;;;;;7.68;5.30;;;16.30;90.40;;;;;;6305250;22;20521;-69
2024/03/23 10:00:43;;;;;;;7.22;5.25;;;16.30;90.00;;;;;;6307822;22;20007;-69
2024/03/23 10:03:11;;;;;;;6.32;4.47;;;16.30;88.70;;;;;;6307980;22;20012;-68
2024/03/23 10:05:37;;;;;;;6.53;4.10;;;16.40;91.00;;;;;;6308067;22;20023;-68
2024/03/23 10:08:14;;;;;;;5.20;3.67;;;16.50;90.10;;;;;;6307092;22;20379;-68
2024/03/23 10:10:44;;;;;;;5.72;3.53;;;16.50;88.70;;;;;;6307066;22;19999;-68
2024/03/23 10:13:12;;;;;;;5.35;3.70;;;16.60;88.20;;;;;;6307755;22;20487;-68
2024/03/23 10:15:38;;;;;;;4.68;4.03;;;16.60;86.00;;;;;;6307562;22;20015;-68
2024/03/23 10:18:19;;;;;;;11.30;3.53;;;16.70;85.90;;;;;;6308340;22;19999;-68
2024/03/23 10:20:50;;;;;;;8.65;3.42;;;16.70;87.20;;;;;;6312431;22;20094;-68
2024/03/23 10:23:16;;;;;;;5.28;3.30;;;16.70;87.40;;;;;;6337734;22;19998;-68
2024/03/23 10:25:42;;;;;;;6.82;3.88;;;16.80;85.10;;;;;;6338684;22;20027;-68
2024/03/23 10:28:09;;;;;;;7.63;3.67;;;16.90;82.90;;;;;;6338343;22;20014;-68
2024/03/23 10:30:35;;;;;;;5.00;3.55;;;16.90;82.60;;;;;;6339191;22;20076;-68
2024/03/23 10:33:08;;;;;;;7.75;4.00;;;16.90;83.40;;;;;;6338758;22;19994;-68
2024/03/23 10:35:34;;;;;;;6.43;3.67;;;16.90;82.00;;;;;;6339386;22;20003;-68
2024/03/23 10:38:00;;;;;;;3.78;2.60;;;16.90;82.30;;;;;;6312444;22;20072;-68
2024/03/23 10:40:27;;;;;;;5.28;3.20;;;16.90;80.60;;;;;;6339910;22;20436;-68
2024/03/23 10:42:55;;;;;;;4.80;2.70;;;16.90;80.90;;;;;;6340030;22;20266;-67
2024/03/23 10:45:22;;;;;;;4.85;3.00;;;16.90;79.60;;;;;;6311757;22;20011;-68
2024/03/23 10:48:17;;;;;;;4.82;2.90;;;17.00;78.90;;;;;;6339637;22;19999;-68
2024/03/23 10:51:08;;;;;;;3.88;2.60;;;17.00;79.50;;;;;;6322950;22;20007;-68
2024/03/23 10:58:02;;;;;;;;;;;;;;;;;;;;;
2024/03/23 11:00:53;;;;;;;3.13;2.33;;;17.10;76.60;;;;;;6156181;23;20055;-68
2024/03/23 11:03:54;;;;;;;5.18;1.98;;;17.20;77.20;;;;;;6163460;23;20345;-68
2024/03/23 11:06:59;;;;;;;2.80;1.92;;;17.20;75.50;;;;;;6212840;23;20152;-68
2024/03/23 11:09:41;;;;;;;6.32;2.00;;;17.20;77.60;;;;;;6212144;23;20012;-67
2024/03/23 11:15:28;;;;;;;6.75;3.20;;;17.40;77.90;;;;;;6298172;22;20017;-68
2024/03/23 11:18:04;;;;;;;6.85;4.30;;;17.40;77.40;;;;;;6336007;22;20072;-67
2024/03/23 11:20:37;;;;;;;7.45;3.75;;;17.50;78.30;;;;;;6338607;22;20395;-68
2024/03/23 11:23:04;;;;;;;7.53;5.25;;;17.50;79.00;;;;;;6338819;22;20065;-68
2024/03/23 11:25:30;;;;;;;5.45;4.18;;;17.50;79.60;;;;;;6338690;22;20007;-68
2024/03/23 11:27:57;;;;;;;5.13;3.90;;;17.60;79.60;;;;;;6338409;22;20002;-68
2024/03/23 11:30:30;;;;;;;6.28;4.28;;;17.70;80.50;;;;;;6307826;22;20341;-70
2024/03/23 11:33:00;;;;;;;5.53;4.68;;;17.70;79.30;;;;;;6338823;22;20006;-67
2024/03/23 11:35:35;;;;;;;9.15;5.47;;;17.80;81.70;;;;;;6337978;22;20030;-76
2024/03/23 11:38:09;;;;;;;10.60;7.00;;;17.80;80.60;;;;;;6338456;22;20002;-66
2024/03/23 11:40:37;;;;;;;11.85;6.68;;;17.80;82.50;;;;;;6338272;22;20369;-75
2024/03/23 11:43:05;;;;;;;10.80;6.75;;;17.90;84.20;;;;;;6337760;22;20003;-68
2024/03/23 11:45:45;;;;;;;9.73;6.75;;;18.00;84.80;;;;;;6337652;22;20097;-69
2024/03/23 11:48:12;;;;;;;14.20;8.65;;;18.00;83.60;;;;;;6338261;22;20010;-66
2024/03/23 11:50:43;;;;;;;15.15;8.65;;;18.10;84.30;;;;;;6338137;22;20416;-68
2024/03/23 11:53:18;;;;;;;12.37;9.33;;;18.10;85.40;;;;;;6337942;22;20421;-66
2024/03/23 11:55:56;;;;;;;10.18;7.90;;;18.10;86.20;;;;;;6338163;22;20507;-67
2024/03/23 11:58:23;;;;;;;12.82;8.45;;;18.10;87.10;;;;;;6338059;22;19995;-68
2024/03/23 12:00:53;;;;;;;13.88;9.52;;;18.10;86.60;;;;;;6337576;22;20073;-68
2024/03/23 12:03:25;;;;;;;11.25;8.02;;;18.20;86.80;;;;;;6338205;22;20105;-68
2024/03/23 12:05:53;;;;;;;15.10;9.48;;;18.20;88.40;;;;;;6337616;22;20102;-68
2024/03/23 12:08:28;;;;;;;12.65;8.80;;;18.20;89.10;;;;;;6309448;22;20033;-68
2024/03/23 12:11:16;;;;;;;15.32;10.13;;;18.20;88.60;;;;;;6337644;22;20023;-71
2024/03/23 12:13:45;;;;;;;15.82;11.10;;;18.20;88.80;;;;;;6335448;22;20478;-76
2024/03/23 12:16:19;;;;;;;16.42;11.55;;;18.10;89.60;;;;;;6333479;22;20644;-77
2024/03/23 12:18:49;;;;;;;15.43;10.43;;;18.10;90.90;;;;;;6335671;22;20015;-76
2024/03/23 12:21:17;;;;;;;12.98;9.98;;;18.00;91.30;;;;;;6337454;22;20328;-73
2024/03/23 12:23:44;;;;;;;13.00;8.80;;;18.00;91.50;;;;;;6337076;22;19995;-73
2024/03/23 12:26:13;;;;;;;11.70;9.82;;;18.00;91.30;;;;;;6336140;22;20546;-74
2024/03/23 12:28:41;;;;;;;14.18;10.95;;;18.00;91.40;;;;;;6337098;22;19999;-76
2024/03/23 12:31:12;;;;;;;17.33;11.68;;;18.00;91.80;;;;;;6337770;22;20444;-77
2024/03/23 12:33:44;;;;;;;13.48;9.52;;;18.00;92.30;;;;;;6337158;22;20052;-69
2024/03/23 12:36:10;;;;;;;16.67;10.57;;;17.90;92.40;;;;;;6337397;22;20321;-75
2024/03/23 12:38:36;;;;;;;10.82;7.85;;;18.00;93.20;;;;;;6332743;22;19999;-81
2024/03/23 12:41:04;;;;;;;12.10;8.90;;;17.90;90.30;;;;;;6334018;22;20010;-71
2024/03/23 12:43:30;;;;;;;11.40;7.32;;;18.00;90.50;;;;;;6334389;22;20359;-75
2024/03/23 12:45:55;;;;;;;12.63;8.93;;;17.90;90.00;;;;;;6337195;22;20014;-69
2024/03/23 12:48:21;;;;;;;12.15;7.57;;;17.90;89.90;;;;;;6338255;22;20021;-80
2024/03/23 12:50:54;;;;;;;9.15;6.32;;;17.90;90.30;;;;;;6338304;22;19999;-72
2024/03/23 12:53:22;;;;;;;9.18;5.68;;;17.90;89.70;;;;;;6337293;22;20393;-68
2024/03/23 12:55:50;;;;;;;9.73;6.40;;;17.90;87.40;;;;;;6339214;22;20339;-69
2024/03/23 12:58:16;;;;;;;10.20;6.63;;;18.00;85.90;;;;;;6311809;22;20003;-69
2024/03/23 13:00:42;;;;;;;12.55;7.43;;;18.00;87.20;;;;;;6310865;22;20060;-68
2024/03/23 13:03:15;;;;;;;14.77;7.68;;;18.00;88.00;;;;;;6339406;22;20002;-68
2024/03/23 13:05:41;;;;;;;11.52;7.82;;;18.10;90.00;;;;;;6338951;22;20086;-68
2024/03/23 13:08:07;;;;;;;13.05;7.47;;;18.10;90.60;;;;;;6339524;22;20083;-68
2024/03/23 13:10:33;;;;;;;13.20;8.25;;;18.20;90.60;;;;;;6339938;22;20005;-69
2024/03/23 13:12:58;;;;;;;12.18;7.90;;;18.30;90.70;;;;;;6338581;22;20081;-68
2024/03/23 13:15:24;;;;;;;10.60;7.32;;;18.40;90.20;;;;;;6337209;22;20010;-68
2024/03/23 13:17:52;;;;;;;15.45;9.90;;;18.40;87.30;;;;;;6339282;22;20091;-80
2024/03/23 13:20:17;;;;;;;14.52;9.73;;;18.50;86.70;;;;;;6339734;22;20428;-73
2024/03/23 13:22:43;;;;;;;13.35;10.25;;;18.50;87.30;;;;;;6339261;22;20074;-68
2024/03/23 13:25:09;;;;;;;15.77;10.88;;;18.50;88.30;;;;;;6339816;22;20006;-78
2024/03/23 13:27:35;;;;;;;16.20;10.80;;;18.50;88.10;;;;;;6339738;22;20087;-68
2024/03/23 13:30:01;;;;;;;14.98;10.10;;;18.50;88.90;;;;;;6339436;22;20007;-69
2024/03/23 13:32:27;;;;;;;14.40;10.38;;;18.60;88.70;;;;;;6339748;22;20002;-68
2024/03/23 13:34:53;;;;;;;14.55;9.93;;;18.60;89.00;;;;;;6339355;22;20013;-68
2024/03/23 13:37:18;;;;;;;11.07;8.70;;;18.60;90.30;;;;;;6339246;22;20022;-68
2024/03/23 13:39:44;;;;;;;10.68;8.68;;;18.60;90.30;;;;;;6339100;22;20010;-68
2024/03/23 13:42:12;;;;;;;16.50;9.65;;;18.70;90.30;;;;;;6339482;22;19999;-68
2024/03/23 13:44:38;;;;;;;12.02;6.72;;;18.70;90.20;;;;;;6339479;22;20056;-68
2024/03/23 13:47:04;;;;;;;9.98;6.50;;;18.70;88.40;;;;;;6338999;22;20406;-68
2024/03/23 13:49:32;;;;;;;10.10;6.82;;;18.70;88.80;;;;;;6339635;22;20002;-68
2024/03/23 13:51:58;;;;;;;10.45;6.63;;;18.80;90.60;;;;;;6339037;22;20451;-68
2024/03/23 13:54:25;;;;;;;9.52;6.85;;;18.80;89.30;;;;;;6339318;22;20003;-68
2024/03/23 13:56:56;;;;;;;11.32;7.47;;;18.80;89.60;;;;;;6339748;22;20414;-68
2024/03/23 13:59:25;;;;;;;9.98;6.57;;;18.80;90.20;;;;;;6339578;22;20325;-69
2024/03/23 14:01:51;;;;;;;15.02;8.55;;;18.80;90.20;;;;;;6339438;22;20011;-69
2024/03/23 14:04:40;;;;;;;11.52;7.03;;;18.80;90.40;;;;;;6340029;22;20026;-74
2024/03/23 14:07:10;;;;;;;11.13;6.90;;;18.80;90.60;;;;;;6339342;22;20310;-71
2024/03/23 14:09:40;;;;;;;8.63;6.63;;;18.70;91.30;;;;;;6339064;22;20328;-68
2024/03/23 14:12:21;;;;;;;12.93;6.85;;;18.60;90.60;;;;;;6339723;22;20003;-68
2024/03/23 14:14:57;;;;;;;15.35;7.30;;;18.60;90.60;;;;;;6340039;22;19999;-71
2024/03/23 14:17:29;;;;;;;9.65;6.25;;;18.60;90.40;;;;;;6339037;22;20014;-70